Time;durP1;ratioP1;P1;durP2;ratioP2;P2;SDS_P1;SDS_P2;PMS_P1;PMS_P2;Temp;Humidity;BMP_temperature;BMP_pressure;BME280_temperature;BME280_humidity;BME280_pressure;Samples;Min_cycle;Max_cycle;Signal;HPM_P1;HPM_P2
2022/06/15 00:01:37;;;;;;;8.23;2.25;;;27.60;99.90;;;;;;5092362;28;20016;-41
2022/06/15 00:04:04;;;;;;;3.92;1.40;;;27.50;99.90;;;;;;5092271;28;20031;-41
2022/06/15 00:06:31;;;;;;;3.75;1.58;;;27.50;99.90;;;;;;5092287;28;20019;-41
2022/06/15 00:08:59;;;;;;;5.78;2.03;;;27.40;99.90;;;;;;5092110;28;20020;-41
2022/06/15 00:11:38;;;;;;;;;;;27.40;99.90;;;;;;5092652;28;20502;-41
2022/06/15 00:14:14;;;;;;;6.03;1.98;;;27.40;99.90;;;;;;5092021;28;19946;-41
2022/06/15 00:16:39;;;;;;;6.07;1.90;;;27.40;99.90;;;;;;5092353;28;20103;-41
2022/06/15 00:19:05;;;;;;;3.80;1.50;;;27.30;99.90;;;;;;5092168;28;20536;-41
2022/06/15 00:21:32;;;;;;;8.23;1.58;;;27.30;99.90;;;;;;5091749;28;20047;-41
2022/06/15 00:23:58;;;;;;;5.00;1.80;;;27.30;99.90;;;;;;5092060;28;20024;-42
2022/06/15 00:26:25;;;;;;;5.07;1.40;;;27.30;99.90;;;;;;5091817;28;20028;-41
2022/06/15 00:28:52;;;;;;;6.47;1.95;;;27.30;99.90;;;;;;5092098;28;20417;-41
2022/06/15 00:31:19;;;;;;;5.28;1.65;;;27.30;99.90;;;;;;5091379;28;20031;-43
2022/06/15 00:33:44;;;;;;;3.47;1.20;;;27.30;99.90;;;;;;5091836;28;20012;-41
2022/06/15 00:36:17;;;;;;;4.97;1.60;;;27.30;99.90;;;;;;5092070;28;20459;-41
2022/06/15 00:38:53;;;;;;;3.85;1.50;;;27.30;99.90;;;;;;5091749;28;20020;-41
2022/06/15 00:41:26;;;;;;;3.20;1.30;;;27.40;99.90;;;;;;5091750;28;20069;-42
2022/06/15 00:43:59;;;;;;;4.03;1.42;;;27.40;99.90;;;;;;5091597;28;20078;-41
2022/06/15 00:46:27;;;;;;;5.57;1.10;;;27.50;99.90;;;;;;5091727;28;20020;-41
2022/06/15 00:49:04;;;;;;;1.65;1.20;;;27.50;99.90;;;;;;5091500;28;20024;-40
2022/06/15 00:51:30;;;;;;;4.30;1.33;;;27.60;99.90;;;;;;5091471;28;20056;-41
2022/06/15 00:53:58;;;;;;;2.50;1.27;;;27.60;99.90;;;;;;5091531;28;20028;-41
2022/06/15 00:56:27;;;;;;;2.28;1.15;;;27.60;99.90;;;;;;5091447;28;20138;-41
2022/06/15 00:59:01;;;;;;;3.22;1.00;;;27.60;99.90;;;;;;5091448;28;20411;-41
2022/06/15 01:01:27;;;;;;;5.32;0.90;;;27.60;99.90;;;;;;5091764;28;20036;-41
2022/06/15 01:03:55;;;;;;;4.07;0.80;;;27.50;99.90;;;;;;5091658;28;20027;-41
2022/06/15 01:06:22;;;;;;;6.78;0.80;;;27.50;99.90;;;;;;5091411;28;20016;-41
2022/06/15 01:09:12;;;;;;;1.77;0.70;;;27.60;99.90;;;;;;5091245;28;20484;-41
2022/06/15 01:11:38;;;;;;;3.13;1.00;;;27.50;99.90;;;;;;5091229;28;20028;-41
2022/06/15 01:14:12;;;;;;;2.45;0.90;;;27.50;99.90;;;;;;5091046;28;20024;-41
2022/06/15 01:16:56;;;;;;;4.15;1.33;;;27.60;99.90;;;;;;5091192;28;20049;-42
2022/06/15 01:19:56;;;;;;;2.50;1.02;;;27.60;99.90;;;;;;5090989;28;20035;-41
2022/06/15 01:22:40;;;;;;;3.63;1.02;;;27.60;99.90;;;;;;5091048;28;20414;-42
2022/06/15 01:25:08;;;;;;;6.45;2.10;;;27.60;99.90;;;;;;5089934;28;20024;-41
2022/06/15 01:27:57;;;;;;;1.70;1.00;;;27.60;99.90;;;;;;5091205;28;20491;-42
2022/06/15 01:30:53;;;;;;;5.20;1.13;;;27.60;99.90;;;;;;5090936;28;20486;-42
2022/06/15 01:33:35;;;;;;;3.20;1.10;;;27.60;99.90;;;;;;5090999;28;20031;-42
2022/06/15 01:36:10;;;;;;;6.78;2.05;;;27.60;99.90;;;;;;5077665;28;20023;-42
2022/06/15 01:38:39;;;;;;;2.03;0.63;;;27.50;99.90;;;;;;5091026;28;20028;-42
2022/06/15 01:41:24;;;;;;;1.23;0.60;;;27.50;99.90;;;;;;5090843;28;20107;-42
2022/06/15 01:44:36;;;;;;;3.65;1.00;;;27.50;99.90;;;;;;5092641;28;20032;-42
2022/06/15 01:47:10;;;;;;;0.95;0.60;;;27.50;99.90;;;;;;5079240;28;20494;-42
2022/06/15 01:49:41;;;;;;;1.48;0.60;;;27.60;99.90;;;;;;5094828;28;20027;-42
2022/06/15 01:52:10;;;;;;;2.15;0.80;;;27.60;99.90;;;;;;5095019;28;20020;-42
2022/06/15 01:54:39;;;;;;;4.97;0.70;;;27.50;99.90;;;;;;5094881;28;20028;-42
2022/06/15 01:57:07;;;;;;;3.45;0.75;;;27.50;99.90;;;;;;5094904;28;20092;-42
2022/06/15 01:59:39;;;;;;;;;;;27.50;99.90;;;;;;5095924;28;20028;-42
2022/06/15 02:02:04;;;;;;;5.47;0.70;;;27.50;99.90;;;;;;5094864;28;19916;-42
2022/06/15 02:04:44;;;;;;;1.80;0.77;;;27.40;99.90;;;;;;5094784;28;20028;-42
2022/06/15 02:07:39;;;;;;;1.52;0.70;;;27.40;99.90;;;;;;5094643;28;20059;-42
2022/06/15 02:10:12;;;;;;;2.30;0.80;;;27.40;99.90;;;;;;5094710;28;20478;-41
2022/06/15 02:13:04;;;;;;;1.15;1.00;;;27.40;99.90;;;;;;5094646;28;20016;-41
2022/06/15 02:15:31;;;;;;;9.90;1.42;;;27.40;99.90;;;;;;5094497;28;20024;-42
2022/06/15 02:18:00;;;;;;;4.85;0.90;;;27.40;99.90;;;;;;5094359;28;20123;-42
2022/06/15 02:20:30;;;;;;;2.60;0.90;;;27.50;99.90;;;;;;5094460;28;20017;-42
2022/06/15 02:23:00;;;;;;;9.90;0.73;;;27.50;99.90;;;;;;5094215;28;20048;-42
2022/06/15 02:25:29;;;;;;;4.03;0.98;;;27.50;99.90;;;;;;5094390;28;20110;-42
2022/06/15 02:27:56;;;;;;;4.63;1.20;;;27.50;99.90;;;;;;5094255;28;20020;-42
2022/06/15 02:30:24;;;;;;;6.65;0.90;;;27.60;99.90;;;;;;5094211;28;20344;-42
2022/06/15 02:32:51;;;;;;;5.43;0.90;;;27.60;99.90;;;;;;5094397;28;20093;-42
2022/06/15 02:35:18;;;;;;;3.58;1.02;;;27.60;99.90;;;;;;5094270;28;20031;-42
2022/06/15 02:37:45;;;;;;;3.25;0.98;;;27.60;99.90;;;;;;5092976;28;20056;-42
2022/06/15 02:40:20;;;;;;;3.42;0.85;;;27.60;99.90;;;;;;5094023;28;20032;-42
2022/06/15 02:42:47;;;;;;;4.55;0.65;;;27.70;99.90;;;;;;5093779;28;20028;-43
2022/06/15 02:45:22;;;;;;;1.33;0.70;;;27.70;99.90;;;;;;5094124;28;20024;-42
2022/06/15 02:47:48;;;;;;;1.00;0.60;;;27.70;99.90;;;;;;5094179;28;20365;-42
2022/06/15 02:50:18;;;;;;;1.52;0.60;;;27.70;99.70;;;;;;5093821;28;20039;-42
2022/06/15 02:53:06;;;;;;;3.13;0.70;;;27.80;93.60;;;;;;5093833;28;20135;-42
2022/06/15 02:55:33;;;;;;;2.33;0.63;;;27.80;91.70;;;;;;5093094;28;20016;-42
2022/06/15 02:58:05;;;;;;;2.70;0.73;;;27.80;94.00;;;;;;5092491;28;20024;-42
2022/06/15 03:00:31;;;;;;;2.70;0.63;;;27.80;94.30;;;;;;5094308;28;20020;-42
2022/06/15 03:02:57;;;;;;;2.85;0.60;;;27.80;89.30;;;;;;5093513;28;20074;-42
2022/06/15 03:05:22;;;;;;;3.63;0.70;;;27.80;98.00;;;;;;5094002;28;20031;-42
2022/06/15 03:07:48;;;;;;;2.60;0.60;;;27.70;93.60;;;;;;5093770;28;20028;-42
2022/06/15 03:10:14;;;;;;;3.95;0.90;;;27.70;99.90;;;;;;5093573;28;20035;-42
2022/06/15 03:12:40;;;;;;;3.45;1.17;;;27.70;99.90;;;;;;5093487;28;20049;-42
2022/06/15 03:15:06;;;;;;;5.80;0.93;;;27.60;99.90;;;;;;5093435;28;20031;-42
2022/06/15 03:17:32;;;;;;;6.10;1.90;;;27.60;99.90;;;;;;5093287;28;20057;-41
2022/06/15 03:19:58;;;;;;;2.50;1.02;;;27.60;99.90;;;;;;5093423;28;20332;-42
2022/06/15 03:22:25;;;;;;;3.00;1.02;;;27.50;99.90;;;;;;5093136;28;20048;-42
2022/06/15 03:24:51;;;;;;;3.45;1.00;;;27.50;99.90;;;;;;5093292;28;20065;-41
2022/06/15 03:27:18;;;;;;;3.67;1.08;;;27.50;99.90;;;;;;5093133;28;20024;-43
2022/06/15 03:29:45;;;;;;;3.22;0.98;;;27.50;99.90;;;;;;5093063;28;20044;-42
2022/06/15 03:32:14;;;;;;;2.17;1.23;;;27.50;99.90;;;;;;5092945;28;20853;-42
2022/06/15 03:34:39;;;;;;;3.20;1.17;;;27.50;99.90;;;;;;5092925;28;20103;-42
2022/06/15 03:37:05;;;;;;;1.92;0.60;;;27.50;99.90;;;;;;5093085;28;20116;-42
2022/06/15 03:39:31;;;;;;;1.77;0.93;;;27.50;99.90;;;;;;5092789;28;20024;-43
2022/06/15 03:42:10;;;;;;;6.68;2.47;;;27.50;99.90;;;;;;5092823;28;20529;-42
2022/06/15 03:44:36;;;;;;;2.95;0.95;;;27.50;99.90;;;;;;5092719;28;20407;-42
2022/06/15 03:47:02;;;;;;;2.20;0.73;;;27.50;96.70;;;;;;5092887;28;20020;-42
2022/06/15 03:49:28;;;;;;;1.60;0.68;;;27.50;99.90;;;;;;5092631;28;20020;-42
2022/06/15 03:51:54;;;;;;;4.45;0.70;;;27.50;99.90;;;;;;5092957;28;20426;-42
2022/06/15 03:54:20;;;;;;;3.90;1.10;;;27.60;99.90;;;;;;5092694;28;20028;-42
2022/06/15 03:56:49;;;;;;;4.28;1.30;;;27.50;99.90;;;;;;5092457;28;20467;-42
2022/06/15 03:59:15;;;;;;;4.57;1.33;;;27.50;99.90;;;;;;5092523;28;20030;-42
2022/06/15 04:01:41;;;;;;;3.40;1.27;;;27.40;99.90;;;;;;5068995;22;20053;-60
2022/06/15 04:04:07;;;;;;;4.22;1.30;;;27.30;99.90;;;;;;5052201;28;20029;-59
2022/06/15 04:06:33;;;;;;;4.53;1.35;;;27.20;99.90;;;;;;5051294;28;20028;-60
2022/06/15 04:08:59;;;;;;;8.23;2.05;;;27.10;99.90;;;;;;5051955;28;20064;-59
2022/06/15 04:14:10;;;;;;;5.45;1.85;;;27.00;99.90;;;;;;5051945;28;20083;-60
2022/06/15 04:16:36;;;;;;;6.10;1.90;;;26.80;99.90;;;;;;5051951;28;20021;-60
2022/06/15 04:19:04;;;;;;;4.85;1.73;;;26.80;99.90;;;;;;5051988;28;20139;-60
2022/06/15 04:21:30;;;;;;;;;;;26.70;99.90;;;;;;5052166;28;20021;-58
2022/06/15 04:23:56;;;;;;;7.03;1.90;;;26.70;99.90;;;;;;5052054;28;19912;-60
2022/06/15 04:26:21;;;;;;;5.80;1.60;;;26.60;99.90;;;;;;5051688;28;20483;-60
2022/06/15 04:28:47;;;;;;;4.28;1.50;;;26.60;99.90;;;;;;5051739;28;20140;-59
2022/06/15 04:31:13;;;;;;;7.97;1.85;;;26.50;99.90;;;;;;5051522;28;20479;-60
2022/06/15 04:33:39;;;;;;;4.25;2.25;;;26.50;99.90;;;;;;5051852;28;20021;-59
2022/06/15 04:36:05;;;;;;;5.05;2.13;;;26.50;99.90;;;;;;5051493;28;20480;-61
2022/06/15 04:38:31;;;;;;;5.57;1.50;;;26.50;99.90;;;;;;5051638;28;20048;-60
2022/06/15 04:40:57;;;;;;;8.95;2.78;;;26.40;99.90;;;;;;5051838;28;20022;-60
2022/06/15 04:43:23;;;;;;;7.10;2.03;;;26.40;99.90;;;;;;5051473;28;20098;-60
2022/06/15 04:45:49;;;;;;;6.65;1.67;;;26.40;99.90;;;;;;5051470;28;20028;-60
2022/06/15 04:48:14;;;;;;;4.45;1.50;;;26.40;99.90;;;;;;5051557;28;20025;-61
2022/06/15 04:50:41;;;;;;;4.95;1.38;;;26.40;99.90;;;;;;5050272;28;20021;-60
2022/06/15 04:53:07;;;;;;;2.03;1.30;;;26.40;99.90;;;;;;5051350;28;20457;-59
2022/06/15 04:55:34;;;;;;;5.22;1.40;;;26.40;99.90;;;;;;5051220;28;20553;-59
2022/06/15 04:58:00;;;;;;;;;;;26.50;99.90;;;;;;5051759;28;20092;-60
2022/06/15 05:00:36;;;;;;;4.53;1.13;;;26.50;99.90;;;;;;5049873;28;20011;-60
2022/06/15 05:03:02;;;;;;;4.40;1.73;;;26.60;99.90;;;;;;5051155;28;20527;-59
2022/06/15 05:05:29;;;;;;;6.63;1.63;;;26.60;99.90;;;;;;5051233;28;20112;-59
2022/06/15 05:07:54;;;;;;;6.22;1.40;;;26.50;99.90;;;;;;5051236;28;20024;-60
2022/06/15 05:10:23;;;;;;;5.30;1.63;;;26.50;99.90;;;;;;5051270;28;20606;-60
2022/06/15 05:12:48;;;;;;;6.80;1.73;;;26.50;99.90;;;;;;5051153;28;20056;-59
2022/06/15 05:15:16;;;;;;;5.95;1.25;;;26.60;99.90;;;;;;5051036;28;20486;-60
2022/06/15 05:17:43;;;;;;;5.93;1.25;;;26.50;99.90;;;;;;5050872;28;20028;-59
2022/06/15 05:20:11;;;;;;;7.80;1.40;;;26.60;99.90;;;;;;5051108;28;20532;-59
2022/06/15 05:22:37;;;;;;;6.60;1.73;;;26.60;99.90;;;;;;5050954;28;20114;-59
2022/06/15 05:25:05;;;;;;;6.90;1.00;;;26.70;99.90;;;;;;5050823;28;20535;-59
2022/06/15 05:27:32;;;;;;;6.18;1.65;;;26.70;99.90;;;;;;5051064;28;20086;-59
2022/06/15 05:29:58;;;;;;;5.95;1.25;;;26.80;99.90;;;;;;5051083;28;20018;-60
2022/06/15 05:32:24;;;;;;;15.88;2.05;;;26.90;99.90;;;;;;5050893;28;20035;-60
2022/06/15 05:34:50;;;;;;;14.38;1.83;;;26.90;99.90;;;;;;5050819;28;20091;-61
2022/06/15 05:37:16;;;;;;;9.35;2.13;;;26.90;99.90;;;;;;5050661;28;20029;-60
2022/06/15 05:39:42;;;;;;;9.05;1.48;;;27.00;99.90;;;;;;5050857;28;20104;-61
2022/06/15 05:42:08;;;;;;;12.45;2.20;;;27.10;99.90;;;;;;5050604;28;20140;-61
2022/06/15 05:47:00;;;;;;;9.85;2.08;;;27.20;99.90;;;;;;5050951;28;20108;-60
2022/06/15 05:49:27;;;;;;;5.00;1.45;;;27.20;99.90;;;;;;5050612;28;20075;-61
2022/06/15 05:51:53;;;;;;;9.98;1.00;;;27.20;99.90;;;;;;5050755;28;20028;-59
2022/06/15 05:54:19;;;;;;;3.88;1.48;;;27.30;99.90;;;;;;5050970;28;20036;-58
2022/06/15 05:56:45;;;;;;;9.70;1.90;;;27.30;99.90;;;;;;5050557;28;20025;-59
2022/06/15 05:59:11;;;;;;;6.18;1.10;;;27.30;99.90;;;;;;5050539;28;20025;-61
2022/06/15 06:01:38;;;;;;;10.13;1.45;;;27.30;99.90;;;;;;5050211;28;20091;-59
2022/06/15 06:04:04;;;;;;;6.93;1.20;;;27.30;99.90;;;;;;5050642;28;20464;-59
2022/06/15 06:06:31;;;;;;;7.03;1.40;;;27.40;99.90;;;;;;5050744;28;20048;-59
2022/06/15 06:08:58;;;;;;;5.47;1.80;;;27.30;99.90;;;;;;5050255;28;20349;-59
2022/06/15 06:11:24;;;;;;;8.47;1.80;;;27.40;99.90;;;;;;5050422;28;20067;-58
2022/06/15 06:13:50;;;;;;;7.03;3.80;;;27.40;99.90;;;;;;5050498;28;20316;-59
2022/06/15 06:16:16;;;;;;;8.77;1.52;;;27.40;99.90;;;;;;5050536;28;20017;-59
2022/06/15 06:18:42;;;;;;;3.40;1.60;;;27.50;99.90;;;;;;5050385;28;20473;-60
2022/06/15 06:21:08;;;;;;;8.65;3.95;;;27.50;99.90;;;;;;5048435;28;20033;-59
2022/06/15 06:23:34;;;;;;;18.30;6.47;;;27.50;99.90;;;;;;5050432;28;20033;-60
2022/06/15 06:26:01;;;;;;;4.40;1.40;;;27.50;99.90;;;;;;5050382;28;20383;-61
2022/06/15 06:28:30;;;;;;;9.20;2.35;;;27.60;99.90;;;;;;5050378;28;20033;-60
2022/06/15 06:30:57;;;;;;;4.97;1.80;;;27.60;99.90;;;;;;5053448;28;20029;-59
2022/06/15 06:33:30;;;;;;;11.23;2.47;;;27.40;99.90;;;;;;5053776;28;20028;-58
2022/06/15 06:35:58;;;;;;;9.10;1.70;;;27.30;99.90;;;;;;5053755;28;20071;-58
2022/06/15 06:38:24;;;;;;;6.65;1.85;;;27.10;99.90;;;;;;5053804;28;20029;-61
2022/06/15 06:40:54;;;;;;;6.80;1.85;;;26.90;99.90;;;;;;5053557;28;20017;-59
2022/06/15 06:43:21;;;;;;;9.18;1.55;;;26.80;99.90;;;;;;5053550;28;20063;-59
2022/06/15 06:45:48;;;;;;;5.72;1.73;;;26.80;99.90;;;;;;5053616;28;20443;-58
2022/06/15 06:48:13;;;;;;;9.82;1.77;;;26.80;99.90;;;;;;5053570;28;20419;-59
2022/06/15 06:50:40;;;;;;;5.85;1.65;;;26.80;99.90;;;;;;5053569;28;20035;-59
2022/06/15 06:53:11;;;;;;;8.63;2.53;;;26.80;99.90;;;;;;5053570;28;20070;-59
2022/06/15 06:55:37;;;;;;;9.88;2.00;;;26.80;99.90;;;;;;5053688;28;20028;-61
2022/06/15 06:58:03;;;;;;;6.05;1.88;;;26.70;99.90;;;;;;5053287;28;20086;-59
2022/06/15 07:00:30;;;;;;;8.80;1.63;;;26.80;99.90;;;;;;5053148;28;20033;-58
2022/06/15 07:03:00;;;;;;;9.10;2.28;;;26.70;99.90;;;;;;5052915;28;20033;-60
2022/06/15 07:05:26;;;;;;;6.10;1.98;;;26.60;99.90;;;;;;5053023;28;20020;-59
2022/06/15 07:07:52;;;;;;;11.75;2.33;;;26.60;99.90;;;;;;5053073;28;20025;-58
2022/06/15 07:10:19;;;;;;;5.18;2.30;;;26.50;99.90;;;;;;5048500;28;20021;-59
2022/06/15 07:12:44;;;;;;;16.23;2.17;;;26.50;99.90;;;;;;5051095;28;20147;-61
2022/06/15 07:15:12;;;;;;;9.65;2.17;;;26.40;99.90;;;;;;5051747;28;20108;-60
2022/06/15 07:17:40;;;;;;;8.52;2.03;;;26.40;99.90;;;;;;5052946;28;20041;-59
2022/06/15 07:20:07;;;;;;;7.20;2.33;;;26.50;99.90;;;;;;5053115;28;20025;-60
2022/06/15 07:22:33;;;;;;;8.77;2.43;;;26.60;99.90;;;;;;5052841;28;20040;-59
2022/06/15 07:24:59;;;;;;;5.18;1.90;;;26.60;99.90;;;;;;5052776;28;20028;-59
2022/06/15 07:27:25;;;;;;;10.13;2.60;;;26.60;99.90;;;;;;5052684;28;20021;-60
2022/06/15 07:29:52;;;;;;;6.55;2.38;;;26.60;99.90;;;;;;5052680;28;20021;-59
2022/06/15 07:32:18;;;;;;;7.20;2.00;;;26.50;99.90;;;;;;5052567;28;20102;-60
2022/06/15 07:34:44;;;;;;;4.45;1.83;;;26.50;99.90;;;;;;5052827;28;20024;-60
2022/06/15 07:37:11;;;;;;;5.32;1.58;;;26.50;99.90;;;;;;5052865;28;20025;-59
2022/06/15 07:39:37;;;;;;;8.63;1.63;;;26.60;99.90;;;;;;5052856;28;20408;-60
2022/06/15 07:42:06;;;;;;;4.47;1.90;;;26.60;99.90;;;;;;5052466;28;20028;-59
2022/06/15 07:44:34;;;;;;;8.52;2.17;;;26.50;99.90;;;;;;5052359;28;20040;-61
2022/06/15 07:49:55;;;;;;;8.05;1.90;;;26.50;99.90;;;;;;5048915;28;20044;-61
2022/06/15 07:52:31;;;;;;;3.83;1.70;;;26.60;99.90;;;;;;5051895;28;20025;-60
2022/06/15 07:54:58;;;;;;;6.78;2.15;;;26.60;99.90;;;;;;5051972;28;20104;-59
2022/06/15 07:57:24;;;;;;;12.57;1.70;;;26.70;99.90;;;;;;5037921;28;20511;-60
2022/06/15 07:59:50;;;;;;;9.02;1.95;;;26.70;99.90;;;;;;5051929;28;20104;-60
2022/06/15 08:02:17;;;;;;;10.37;4.07;;;26.70;99.90;;;;;;5042445;28;20116;-60
2022/06/15 08:04:43;;;;;;;9.00;2.67;;;26.80;99.90;;;;;;5051680;28;20049;-60
2022/06/15 08:07:11;;;;;;;5.15;1.63;;;26.90;99.90;;;;;;5051955;28;20063;-60
2022/06/15 08:09:38;;;;;;;9.18;1.75;;;27.00;99.90;;;;;;5051817;28;20466;-60
2022/06/15 08:12:18;;;;;;;4.88;1.70;;;27.10;99.90;;;;;;5051788;28;20024;-60
2022/06/15 08:15:10;;;;;;;5.35;1.52;;;27.10;99.90;;;;;;5039243;28;20053;-60
2022/06/15 08:17:44;;;;;;;3.95;1.70;;;27.30;99.90;;;;;;5038307;28;20128;-61
2022/06/15 08:20:16;;;;;;;12.68;1.88;;;27.30;99.90;;;;;;5040716;28;20017;-59
2022/06/15 08:22:46;;;;;;;4.00;2.22;;;27.40;99.90;;;;;;5051382;28;20029;-61
2022/06/15 08:25:19;;;;;;;5.63;1.92;;;27.50;99.90;;;;;;5051584;28;20027;-61
2022/06/15 08:27:46;;;;;;;8.05;2.38;;;27.60;99.90;;;;;;5050447;28;20025;-60
2022/06/15 08:30:13;;;;;;;8.63;1.80;;;27.60;99.90;;;;;;5051437;28;20056;-60
2022/06/15 08:32:39;;;;;;;5.67;1.70;;;27.70;99.90;;;;;;5043536;28;20029;-60
2022/06/15 08:35:07;;;;;;;5.72;2.08;;;27.70;99.90;;;;;;5044111;28;20025;-61
2022/06/15 08:37:33;;;;;;;5.90;1.90;;;27.70;99.90;;;;;;5037639;28;20043;-60
2022/06/15 08:39:59;;;;;;;6.32;3.25;;;27.70;99.90;;;;;;5038999;28;20017;-60
2022/06/15 08:42:38;;;;;;;6.15;1.05;;;27.80;99.90;;;;;;5047807;28;20044;-69
2022/06/15 08:45:13;;;;;;;7.18;1.42;;;27.70;99.90;;;;;;5040503;28;20132;-61
2022/06/15 08:47:50;;;;;;;4.25;1.98;;;27.70;99.90;;;;;;5037814;28;20109;-61
2022/06/15 08:50:28;;;;;;;;;;;27.80;99.90;;;;;;5046912;28;20489;-60
2022/06/15 08:53:09;;;;;;;2.15;1.15;;;27.80;99.90;;;;;;5046433;28;20423;-60
2022/06/15 08:55:49;;;;;;;2.80;1.67;;;27.80;99.90;;;;;;5050679;28;20025;-61
2022/06/15 08:58:25;;;;;;;6.93;1.83;;;27.80;99.90;;;;;;5050939;28;20029;-60
2022/06/15 09:00:57;;;;;;;7.30;1.10;;;27.90;99.90;;;;;;5036547;28;20495;-60
2022/06/15 09:03:42;;;;;;;3.88;1.35;;;27.90;99.90;;;;;;5050691;28;20044;-60
2022/06/15 09:06:17;;;;;;;6.05;1.17;;;28.00;99.90;;;;;;5042266;28;20025;-60
2022/06/15 09:09:16;;;;;;;5.00;1.20;;;28.00;99.90;;;;;;5045546;28;20025;-60
2022/06/15 09:12:49;;;;;;;3.58;1.30;;;28.00;99.90;;;;;;5037742;28;20120;-60
2022/06/15 09:15:09;;;;;;;5.70;1.10;;;28.00;99.90;;;;;;5048537;28;20020;-59
2022/06/15 09:17:36;;;;;;;4.82;1.60;;;28.10;99.90;;;;;;5048447;28;20029;-58
2022/06/15 09:20:04;;;;;;;;;;;28.10;99.90;;;;;;5050851;28;20480;-59
2022/06/15 09:22:39;;;;;;;4.05;1.63;;;28.20;99.90;;;;;;5050014;28;19920;-59
2022/06/15 09:25:28;;;;;;;2.95;1.27;;;28.20;99.90;;;;;;5050008;28;20063;-59
2022/06/15 09:28:01;;;;;;;3.00;1.50;;;28.30;99.90;;;;;;5049913;28;20036;-59
2022/06/15 09:30:31;;;;;;;5.85;1.60;;;28.30;99.90;;;;;;5038056;28;20024;-59
2022/06/15 09:33:12;;;;;;;3.13;1.50;;;28.30;99.90;;;;;;5050507;28;20040;-59
2022/06/15 09:35:52;;;;;;;4.18;1.10;;;28.30;99.90;;;;;;5038264;28;21083;-60
2022/06/15 09:38:18;;;;;;;5.75;1.25;;;28.30;99.90;;;;;;5050419;28;20128;-59
2022/06/15 09:40:53;;;;;;;6.55;1.45;;;28.40;99.90;;;;;;5039596;28;20112;-59
2022/06/15 09:43:19;;;;;;;4.82;1.40;;;28.40;99.90;;;;;;5050259;28;20044;-60
2022/06/15 09:45:47;;;;;;;7.30;1.67;;;28.40;99.90;;;;;;5038776;28;20017;-59
2022/06/15 09:48:45;;;;;;;4.85;1.60;;;28.40;99.90;;;;;;5043444;28;20025;-59
2022/06/15 09:51:43;;;;;;;4.35;1.52;;;28.60;99.90;;;;;;5036650;28;20026;-60
2022/06/15 09:54:16;;;;;;;5.88;1.85;;;28.60;99.90;;;;;;5018516;28;20028;-60
2022/06/15 09:56:41;;;;;;;4.90;1.55;;;28.60;99.90;;;;;;5043644;28;20104;-59
2022/06/15 09:59:14;;;;;;;8.55;2.03;;;28.60;99.90;;;;;;5063804;28;20413;-59
2022/06/15 10:01:45;;;;;;;4.03;1.52;;;28.60;99.90;;;;;;5037162;28;20072;-60
2022/06/15 10:04:32;;;;;;;6.53;2.15;;;28.60;99.90;;;;;;5045457;28;20116;-60
2022/06/15 10:07:04;;;;;;;5.95;2.30;;;28.60;99.90;;;;;;5047763;28;20027;-60
2022/06/15 10:09:36;;;;;;;5.70;2.15;;;28.60;99.90;;;;;;5050609;28;20055;-60
2022/06/15 10:15:15;;;;;;;5.13;1.60;;;28.60;99.90;;;;;;5044834;28;20028;-60
2022/06/15 10:17:46;;;;;;;9.43;2.13;;;28.60;99.90;;;;;;5052030;28;20039;-60
2022/06/15 10:20:23;;;;;;;9.55;1.55;;;28.60;99.90;;;;;;5042618;28;20048;-60
2022/06/15 10:22:53;;;;;;;6.65;2.08;;;28.60;99.90;;;;;;5053396;28;20500;-60
2022/06/15 10:25:19;;;;;;;5.38;1.42;;;28.60;99.90;;;;;;5053708;28;20029;-60
2022/06/15 10:27:46;;;;;;;9.55;1.80;;;28.70;99.90;;;;;;5053585;28;20476;-60
2022/06/15 10:30:11;;;;;;;6.50;1.88;;;28.70;99.90;;;;;;5052864;28;20450;-60
2022/06/15 10:32:54;;;;;;;7.07;1.77;;;28.60;99.90;;;;;;5053260;28;20053;-59
2022/06/15 10:35:20;;;;;;;7.28;2.45;;;28.70;99.90;;;;;;5040845;28;20025;-60
2022/06/15 10:37:55;;;;;;;5.43;1.70;;;28.60;99.90;;;;;;5053169;28;20032;-60
2022/06/15 10:40:25;;;;;;;7.25;1.98;;;28.50;99.90;;;;;;5042378;28;20025;-60
2022/06/15 10:43:25;;;;;;;8.88;1.70;;;28.60;99.90;;;;;;5053213;28;20138;-60
2022/06/15 10:45:58;;;;;;;9.07;1.73;;;28.60;99.90;;;;;;5041043;28;20017;-59
2022/06/15 10:48:40;;;;;;;5.13;1.67;;;28.60;99.90;;;;;;5052839;28;20032;-60
2022/06/15 10:51:12;;;;;;;8.68;1.95;;;28.60;99.90;;;;;;5042555;28;21217;-59
2022/06/15 10:53:45;;;;;;;5.22;2.17;;;28.60;99.90;;;;;;5046118;28;20473;-59
2022/06/15 11:02:23;;;;;;;11.43;4.88;;;28.60;99.90;;;;;;5045081;28;20067;-60
2022/06/15 11:04:49;;;;;;;8.02;3.97;;;28.60;99.90;;;;;;5053114;28;20017;-60
2022/06/15 11:07:20;;;;;;;7.25;2.10;;;28.60;99.90;;;;;;5048540;28;20163;-60
2022/06/15 11:09:55;;;;;;;10.10;2.63;;;28.60;99.90;;;;;;5051318;28;20032;-61
2022/06/15 11:12:40;;;;;;;4.38;2.13;;;28.50;99.90;;;;;;5047484;28;20032;-60
2022/06/15 11:15:14;;;;;;;5.97;2.13;;;28.50;99.90;;;;;;5042571;28;20017;-60
2022/06/15 11:18:04;;;;;;;8.00;3.20;;;28.60;99.90;;;;;;5050763;28;20032;-61
2022/06/15 11:20:41;;;;;;;5.70;2.45;;;28.60;99.90;;;;;;5052536;28;20515;-60
2022/06/15 11:23:24;;;;;;;5.85;2.85;;;28.70;99.90;;;;;;5052182;28;20116;-61
2022/06/15 11:25:55;;;;;;;7.90;2.47;;;28.60;99.90;;;;;;5052526;28;20083;-60
2022/06/15 11:28:35;;;;;;;14.90;2.75;;;28.60;99.90;;;;;;5052074;28;20642;-61
2022/06/15 11:31:22;;;;;;;6.65;1.98;;;28.60;99.90;;;;;;5052517;28;20027;-61
2022/06/15 11:33:57;;;;;;;9.05;2.92;;;28.60;99.90;;;;;;5052254;28;20087;-61
2022/06/15 11:36:28;;;;;;;9.75;2.58;;;28.70;99.90;;;;;;5052234;28;20036;-60
2022/06/15 11:39:22;;;;;;;7.40;2.65;;;28.70;99.90;;;;;;5046619;28;20024;-61
2022/06/15 11:41:54;;;;;;;9.90;2.67;;;28.70;99.90;;;;;;5035863;28;20026;-61
2022/06/15 11:44:32;;;;;;;5.32;2.35;;;28.90;99.90;;;;;;5052162;28;20052;-61
2022/06/15 11:47:07;;;;;;;5.93;2.53;;;28.90;99.90;;;;;;5052019;28;20021;-61
2022/06/15 11:50:15;;;;;;;6.35;1.88;;;28.90;99.90;;;;;;5051865;28;20029;-61
2022/06/15 11:52:48;;;;;;;7.70;2.00;;;28.90;99.90;;;;;;5039696;28;20024;-61
2022/06/15 11:55:32;;;;;;;6.43;2.45;;;28.90;99.90;;;;;;5052149;28;20444;-61
2022/06/15 11:58:01;;;;;;;9.15;2.80;;;28.90;99.90;;;;;;5045651;28;20044;-61
2022/06/15 12:00:41;;;;;;;11.43;3.25;;;29.00;99.90;;;;;;5040243;28;20049;-62
2022/06/15 12:03:34;;;;;;;4.63;1.80;;;28.90;99.90;;;;;;5044845;28;20040;-61
2022/06/15 12:06:28;;;;;;;4.63;2.00;;;28.90;99.90;;;;;;5032204;28;20025;-61
2022/06/15 12:09:30;;;;;;;7.75;2.25;;;29.00;99.90;;;;;;5048848;28;20389;-61
2022/06/15 12:15:12;;;;;;;8.63;2.70;;;29.10;99.90;;;;;;5038701;28;20404;-59
2022/06/15 12:17:47;;;;;;;8.85;2.75;;;29.10;99.90;;;;;;5051785;28;20116;-60
2022/06/15 12:20:32;;;;;;;5.53;1.83;;;29.10;99.90;;;;;;5043891;28;20044;-60
2022/06/15 12:23:04;;;;;;;6.60;2.25;;;29.20;99.90;;;;;;5024192;28;20516;-60
2022/06/15 12:25:41;;;;;;;4.95;1.98;;;29.30;99.90;;;;;;5039117;28;20060;-60
2022/06/15 12:28:15;;;;;;;;;;;29.30;99.90;;;;;;5051283;28;20025;-60
2022/06/15 12:30:51;;;;;;;7.43;3.05;;;29.30;99.90;;;;;;5045536;28;19913;-60
2022/06/15 12:33:36;;;;;;;3.88;2.05;;;29.40;99.90;;;;;;5031861;28;20079;-59
2022/06/15 12:36:15;;;;;;;9.38;3.13;;;29.40;99.90;;;;;;5031475;28;20021;-59
2022/06/15 12:38:58;;;;;;;5.47;1.77;;;29.50;99.90;;;;;;5043615;28;20497;-60
2022/06/15 12:44:52;;;;;;;5.72;2.28;;;29.50;99.90;;;;;;5031338;28;20096;-59
2022/06/15 12:47:20;;;;;;;10.68;2.65;;;29.50;99.90;;;;;;5031413;28;20025;-60
2022/06/15 12:50:13;;;;;;;9.80;2.75;;;29.60;99.90;;;;;;5048608;28;20024;-60
2022/06/15 12:52:51;;;;;;;4.88;2.72;;;29.60;99.90;;;;;;5051205;28;20380;-60
2022/06/15 12:55:46;;;;;;;6.75;2.20;;;29.70;99.90;;;;;;5051205;28;20029;-61
2022/06/15 12:58:26;;;;;;;6.45;2.70;;;29.60;99.90;;;;;;5034140;28;20025;-60
2022/06/15 13:01:15;;;;;;;6.43;2.55;;;29.70;99.90;;;;;;5031022;28;20049;-59
2022/06/15 13:03:59;;;;;;;5.05;2.35;;;29.70;99.90;;;;;;5029042;28;20064;-60
2022/06/15 13:06:38;;;;;;;10.35;3.03;;;29.70;99.90;;;;;;5041424;28;20480;-60
2022/06/15 13:09:05;;;;;;;6.68;2.40;;;29.80;99.90;;;;;;5034859;28;20029;-60
2022/06/15 13:11:42;;;;;;;6.15;2.72;;;29.80;99.90;;;;;;5042797;28;20009;-59
2022/06/15 13:14:15;;;;;;;5.35;1.98;;;29.80;99.90;;;;;;5030853;28;20029;-61
2022/06/15 13:16:58;;;;;;;7.68;2.20;;;29.80;99.90;;;;;;5030886;28;20037;-61
2022/06/15 13:19:36;;;;;;;4.88;2.33;;;29.80;99.90;;;;;;5046506;28;20043;-61
2022/06/15 13:22:32;;;;;;;6.28;2.53;;;29.80;99.90;;;;;;5043831;28;20037;-61
2022/06/15 13:25:03;;;;;;;5.95;2.28;;;29.90;99.90;;;;;;5045942;28;20566;-61
2022/06/15 13:27:37;;;;;;;4.75;2.42;;;29.90;99.90;;;;;;5031136;28;20026;-61
2022/06/15 13:30:28;;;;;;;6.72;2.25;;;29.90;99.90;;;;;;5030898;28;20021;-61
2022/06/15 13:33:07;;;;;;;5.97;2.22;;;29.90;99.90;;;;;;5036485;28;20108;-60
2022/06/15 13:35:40;;;;;;;8.32;2.20;;;30.00;99.90;;;;;;5034505;28;20373;-61
2022/06/15 13:38:34;;;;;;;8.40;2.67;;;30.00;99.90;;;;;;5051251;28;20063;-61